createdAt,value
2024-01-15T00:02:01.427Z,84999.19
2024-01-15T00:04:28.097Z,84998.97
2024-01-15T00:06:54.937Z,84997.03
2024-01-15T00:09:21.596Z,85006.00
2024-01-15T00:11:48.351Z,84997.56
2024-01-15T00:14:15.918Z,85001.97
2024-01-15T00:16:42.861Z,84995.25
2024-01-15T00:19:09.693Z,84997.88
2024-01-15T00:21:36.418Z,84999.50
2024-01-15T00:24:03.210Z,85004.66
2024-01-15T00:26:29.875Z,85004.44
2024-01-15T00:28:56.539Z,84992.88
2024-01-15T00:31:23.428Z,84996.38
2024-01-15T00:33:50.319Z,84987.28
2024-01-15T00:36:18.120Z,84986.88
2024-01-15T00:38:48.654Z,84983.59
2024-01-15T00:41:15.636Z,84984.81
2024-01-15T00:43:42.345Z,84983.00
2024-01-15T00:46:09.349Z,84986.78
2024-01-15T00:48:36.289Z,84983.78
2024-01-15T00:51:03.128Z,84975.72
2024-01-15T00:53:30.207Z,84986.06
2024-01-15T00:55:56.885Z,84979.69
2024-01-15T00:58:23.663Z,84981.41
2024-01-15T01:00:50.382Z,84973.97
2024-01-15T01:03:17.395Z,84981.41
2024-01-15T01:05:45.398Z,84972.69
2024-01-15T01:08:12.313Z,84971.72
2024-01-15T01:10:39.082Z,84972.81
2024-01-15T01:13:05.905Z,84966.09
2024-01-15T01:15:32.669Z,84966.13
2024-01-15T01:17:59.527Z,84970.72
2024-01-15T01:20:26.344Z,84971.75
2024-01-15T01:22:53.115Z,84980.16
2024-01-15T01:25:20.016Z,84984.13
2024-01-15T01:27:46.670Z,84974.03
2024-01-15T01:30:13.474Z,84973.72
2024-01-15T01:32:40.246Z,84972.16
2024-01-15T01:35:07.127Z,84963.31
2024-01-15T01:37:35.422Z,84962.03
2024-01-15T01:40:02.011Z,84961.78
2024-01-15T01:42:28.719Z,84959.41
2024-01-15T01:44:55.398Z,84964.28
2024-01-15T01:47:22.048Z,84962.13
2024-01-15T01:49:48.946Z,84955.47
2024-01-15T01:52:15.662Z,84951.72
2024-01-15T01:54:42.414Z,84945.31
2024-01-15T01:57:09.256Z,84948.19
2024-01-15T01:59:35.980Z,84944.16
2024-01-15T02:02:03.827Z,84954.88
2024-01-15T02:04:30.596Z,84937.41
2024-01-15T02:06:57.356Z,84940.91
2024-01-15T02:09:24.075Z,84933.97
2024-01-15T02:11:50.741Z,84935.50
2024-01-15T02:14:17.372Z,84924.91
2024-01-15T02:16:43.932Z,84924.69
2024-01-15T02:19:19.652Z,84915.84
2024-01-15T02:21:46.476Z,84922.78
2024-01-15T02:24:13.287Z,84925.31
2024-01-15T02:26:40.416Z,84920.88
2024-01-15T02:29:08.218Z,84922.94
2024-01-15T02:31:34.885Z,84916.78
2024-01-15T02:34:01.784Z,84919.66
2024-01-15T02:36:28.470Z,84908.41
2024-01-15T02:38:55.122Z,84910.88
2024-01-15T02:41:21.789Z,84914.72
2024-01-15T02:43:48.374Z,84906.03
2024-01-15T02:46:15.124Z,84908.81
2024-01-15T02:48:41.793Z,84915.69
2024-01-15T02:51:08.499Z,84903.38
2024-01-15T02:53:36.800Z,84904.75
2024-01-15T02:56:03.437Z,84901.34
2024-01-15T02:58:30.066Z,84899.28
2024-01-15T03:00:56.786Z,84908.19
2024-01-15T03:03:23.589Z,84899.28
2024-01-15T03:05:50.397Z,84913.69
2024-01-15T03:08:17.175Z,84903.38
2024-01-15T03:10:43.904Z,84907.50
2024-01-15T03:13:10.547Z,84903.38
2024-01-15T03:15:37.161Z,84902.00
2024-01-15T03:18:03.947Z,84903.41
2024-01-15T03:20:30.594Z,84901.34
2024-01-15T03:22:57.208Z,84905.44
2024-01-15T03:25:23.824Z,84900.66
2024-01-15T03:27:50.540Z,84902.69
2024-01-15T03:30:17.332Z,84910.22
2024-01-15T03:32:44.053Z,84904.72
2024-01-15T03:35:11.239Z,84911.59
2024-01-15T03:37:38.020Z,84913.66
2024-01-15T03:40:05.054Z,84908.84
2024-01-15T03:42:31.878Z,84907.44
2024-01-15T03:44:58.559Z,84906.09
2024-01-15T03:47:25.317Z,84901.31
2024-01-15T03:49:51.964Z,84908.16
2024-01-15T03:52:18.758Z,84904.03
2024-01-15T03:54:45.476Z,84906.09
2024-01-15T03:57:12.222Z,84906.09
2024-01-15T03:59:38.809Z,84901.97
2024-01-15T04:02:05.625Z,84904.72
2024-01-15T04:04:32.293Z,84898.50
2024-01-15T04:06:59.064Z,84893.00
2024-01-15T04:09:25.752Z,84887.53
2024-01-15T04:11:52.432Z,84892.38
2024-01-15T04:14:19.067Z,84888.97
2024-01-15T04:16:45.752Z,84901.91
2024-01-15T04:19:12.408Z,84897.78
2024-01-15T04:21:39.842Z,84901.91
2024-01-15T04:24:06.699Z,84904.66
2024-01-15T04:26:33.365Z,84911.50
2024-01-15T04:29:00.204Z,84911.56
2024-01-15T04:31:28.405Z,84915.59
2024-01-15T04:33:55.547Z,84903.28
2024-01-15T04:36:22.335Z,84895.06
2024-01-15T04:38:48.926Z,84899.19
2024-01-15T04:41:15.656Z,84895.06
2024-01-15T04:43:42.289Z,84884.09
2024-01-15T04:46:08.923Z,84884.78
2024-01-15T04:48:35.705Z,84886.84
2024-01-15T04:51:02.455Z,84890.94
2024-01-15T04:53:29.076Z,84884.78
2024-01-15T04:55:55.913Z,84888.19
2024-01-15T04:58:26.175Z,84884.78
2024-01-15T05:00:52.974Z,84897.13
2024-01-15T05:03:19.802Z,84899.16
2024-01-15T05:05:46.580Z,84895.72
2024-01-15T05:08:13.229Z,84888.88
2024-01-15T05:10:39.980Z,84889.56
2024-01-15T05:13:06.613Z,84888.19
2024-01-15T05:15:33.383Z,84873.13
2024-01-15T05:18:00.305Z,84879.31
2024-01-15T05:20:27.151Z,84865.63
2024-01-15T05:22:53.820Z,84862.19
2024-01-15T05:25:21.723Z,84867.66
2024-01-15T05:27:48.441Z,84864.91
2024-01-15T05:30:15.432Z,84864.25
2024-01-15T05:32:42.212Z,84872.47
2024-01-15T05:35:08.918Z,84873.81
2024-01-15T05:37:35.511Z,84881.34
2024-01-15T05:40:02.258Z,84882.03
2024-01-15T05:42:31.818Z,84881.34
2024-01-15T05:45:00.750Z,84879.97
2024-01-15T05:47:27.477Z,84878.63
2024-01-15T05:49:54.292Z,84876.53
2024-01-15T05:52:22.283Z,84875.84
2024-01-15T05:54:49.203Z,84870.41
2024-01-15T05:57:15.918Z,84873.81
2024-01-15T05:59:42.614Z,84874.50
2024-01-15T06:02:09.247Z,84872.47
2024-01-15T06:04:35.967Z,84867.63
2024-01-15T06:07:02.809Z,84873.09
2024-01-15T06:09:29.700Z,84869.03
2024-01-15T06:11:56.550Z,84866.97
2024-01-15T06:14:23.224Z,84864.88
2024-01-15T06:16:50.658Z,84856.69
2024-01-15T06:19:17.398Z,84858.03
2024-01-15T06:21:44.091Z,84855.31
2024-01-15T06:24:11.557Z,84859.44
2024-01-15T06:26:38.257Z,84867.63
2024-01-15T06:29:04.928Z,84866.25
2024-01-15T06:31:31.715Z,84871.03
2024-01-15T06:33:58.700Z,84877.91
2024-01-15T06:36:25.540Z,84873.75
2024-01-15T06:38:52.324Z,84875.78
2024-01-15T06:41:18.955Z,84864.19
2024-01-15T06:43:45.624Z,84865.59
2024-01-15T06:46:12.331Z,84858.72
2024-01-15T06:48:39.259Z,84866.91
2024-01-15T06:51:06.024Z,84862.13
2024-01-15T06:53:32.737Z,84854.63
2024-01-15T06:55:59.452Z,84856.63
2024-01-15T06:58:26.072Z,84868.97
2024-01-15T07:00:52.828Z,84868.28
2024-01-15T07:03:19.690Z,84870.31
2024-01-15T07:05:46.778Z,84868.94
2024-01-15T07:08:13.482Z,84877.84
2024-01-15T07:10:40.217Z,84875.75
2024-01-15T07:13:07.054Z,84879.22
2024-01-15T07:15:33.724Z,84876.44
2024-01-15T07:18:00.513Z,84865.50
2024-01-15T07:20:27.303Z,84862.78
2024-01-15T07:22:54.020Z,84864.88
2024-01-15T07:25:20.697Z,84849.13
2024-01-15T07:27:48.295Z,84847.72
2024-01-15T07:30:15.361Z,84839.66
2024-01-15T07:32:42.814Z,84851.31
2024-01-15T07:35:09.655Z,84862.25
2024-01-15T07:37:36.471Z,84865.63
2024-01-15T07:40:05.701Z,84862.22
2024-01-15T07:42:32.462Z,84856.06
2024-01-15T07:44:59.127Z,84855.38
2024-01-15T07:47:25.831Z,84856.03
2024-01-15T07:49:52.521Z,84837.63
2024-01-15T07:52:19.227Z,84861.56
2024-01-15T07:54:45.992Z,84847.91
2024-01-15T07:57:12.716Z,84858.75
2024-01-15T07:59:39.501Z,84854.75
2024-01-15T08:02:06.257Z,84870.41
2024-01-15T08:04:33.000Z,84853.34
2024-01-15T08:06:59.738Z,84843.00
2024-01-15T08:09:26.360Z,84856.66
2024-01-15T08:11:53.037Z,84845.81
2024-01-15T08:14:19.740Z,84849.63
2024-01-15T08:16:46.414Z,84862.25
2024-01-15T08:19:13.352Z,84861.94
2024-01-15T08:21:40.352Z,84865.63
2024-01-15T08:24:07.259Z,84856.50
2024-01-15T08:26:33.974Z,84864.88
2024-01-15T08:29:00.684Z,84874.44
2024-01-15T08:31:27.657Z,84871.59
2024-01-15T08:33:54.687Z,84858.78
2024-01-15T08:36:22.309Z,84868.66
2024-01-15T08:38:49.060Z,84855.34
2024-01-15T08:41:15.674Z,84875.53
2024-01-15T08:43:42.368Z,84871.69
2024-01-15T08:46:09.240Z,84861.84
2024-01-15T08:48:36.165Z,84874.34
2024-01-15T08:51:02.862Z,84864.78
2024-01-15T08:53:29.593Z,84861.81
2024-01-15T08:55:56.412Z,84863.47
2024-01-15T08:58:24.390Z,84873.97
2024-01-15T09:00:52.104Z,84872.38
2024-01-15T09:03:18.968Z,84865.78
2024-01-15T09:05:45.759Z,84859.31
2024-01-15T09:08:12.905Z,84863.84
2024-01-15T09:10:39.670Z,84860.53
2024-01-15T09:13:06.346Z,84866.06
2024-01-15T09:15:33.544Z,84861.69
2024-01-15T09:18:00.660Z,84864.81
2024-01-15T09:20:28.770Z,84859.41
2024-01-15T09:22:55.539Z,84856.56
2024-01-15T09:25:22.320Z,84840.94
2024-01-15T09:27:49.606Z,84847.53
2024-01-15T09:30:16.885Z,84856.19
2024-01-15T09:32:43.982Z,84834.34
2024-01-15T09:35:11.199Z,84832.31
2024-01-15T09:37:45.444Z,84829.38
2024-01-15T09:40:16.539Z,84831.81
2024-01-15T09:42:43.827Z,84820.31
2024-01-15T09:45:10.772Z,84822.22
2024-01-15T09:47:40.015Z,84813.31
2024-01-15T09:50:08.687Z,84820.09
2024-01-15T09:52:35.786Z,84796.19
2024-01-15T09:55:02.920Z,84789.72
2024-01-15T09:57:29.688Z,84804.00
2024-01-15T09:59:56.926Z,84787.53
2024-01-15T10:02:23.540Z,84797.41
2024-01-15T10:04:50.363Z,84791.28
2024-01-15T10:07:20.876Z,84783.03
2024-01-15T10:09:47.945Z,84776.75
2024-01-15T10:12:14.630Z,84772.03
2024-01-15T10:14:41.730Z,84773.44
2024-01-15T10:17:18.353Z,84769.81
2024-01-15T10:19:50.156Z,84758.50
2024-01-15T10:22:17.623Z,84764.13
2024-01-15T10:24:44.402Z,84758.06
2024-01-15T10:27:11.794Z,84757.06
2024-01-15T10:29:38.641Z,84756.25
2024-01-15T10:32:07.837Z,84762.25
2024-01-15T10:34:34.821Z,84754.16
2024-01-15T10:37:02.338Z,84744.50
2024-01-15T10:39:29.291Z,84738.25
2024-01-15T10:41:55.962Z,84736.38
2024-01-15T10:44:22.702Z,84726.97
2024-01-15T10:46:49.506Z,84725.03
2024-01-15T10:49:16.357Z,84723.31
2024-01-15T10:51:43.165Z,84722.50
2024-01-15T10:54:12.382Z,84727.09
2024-01-15T10:56:39.126Z,84719.09
2024-01-15T10:59:05.834Z,84712.06
2024-01-15T11:01:32.703Z,84715.50
2024-01-15T11:03:59.740Z,84707.44
2024-01-15T11:06:26.837Z,84713.94
2024-01-15T11:08:53.739Z,84715.34
2024-01-15T11:11:20.457Z,84711.53
2024-01-15T11:13:52.913Z,84717.00
2024-01-15T11:16:19.560Z,84718.16
2024-01-15T11:18:58.707Z,84708.75
2024-01-15T11:21:27.406Z,84716.72
2024-01-15T11:23:55.370Z,84713.47
2024-01-15T11:26:27.932Z,84708.56
2024-01-15T11:28:55.450Z,84703.75
2024-01-15T11:31:22.164Z,84707.44
2024-01-15T11:33:52.530Z,84700.06
2024-01-15T11:36:19.416Z,84709.13
2024-01-15T11:38:46.839Z,84713.50
2024-01-15T11:41:17.214Z,84710.06
2024-01-15T11:43:44.368Z,84706.34
2024-01-15T11:46:16.726Z,84702.50
2024-01-15T11:48:49.301Z,84698.88
2024-01-15T11:51:16.109Z,84705.13
2024-01-15T11:53:49.272Z,84696.28
2024-01-15T11:56:17.083Z,84691.25
2024-01-15T11:58:44.268Z,84684.84
2024-01-15T12:01:12.045Z,84688.31
2024-01-15T12:03:38.765Z,84674.19
2024-01-15T12:06:08.819Z,84676.25
2024-01-15T12:08:36.041Z,84685.31
2024-01-15T12:11:03.307Z,84685.59
2024-01-15T12:13:29.888Z,84683.19
2024-01-15T12:15:56.661Z,84684.38
2024-01-15T12:18:23.656Z,84698.03
2024-01-15T12:20:50.956Z,84699.13
2024-01-15T12:23:18.633Z,84702.59
2024-01-15T12:25:45.846Z,84705.66
2024-01-15T12:28:12.662Z,84688.13
2024-01-15T12:30:40.027Z,84693.25
2024-01-15T12:33:07.195Z,84685.81
2024-01-15T12:35:36.818Z,84681.88
2024-01-15T12:38:06.642Z,84677.84
2024-01-15T12:40:34.523Z,84681.97
2024-01-15T12:43:01.442Z,84680.69
2024-01-15T12:45:28.213Z,84675.84
2024-01-15T12:47:54.994Z,84689.66
2024-01-15T12:50:24.774Z,84681.44
2024-01-15T12:52:51.574Z,84673.25
2024-01-15T12:55:18.343Z,84676.69
2024-01-15T12:57:46.574Z,84676.69
2024-01-15T13:00:14.791Z,84672.63
2024-01-15T13:02:43.352Z,84658.22
2024-01-15T13:05:12.914Z,84654.13
2024-01-15T13:07:40.690Z,84659.63
2024-01-15T13:10:07.670Z,84656.88
2024-01-15T13:12:34.954Z,84656.91
2024-01-15T13:15:04.748Z,84649.34
2024-01-15T13:17:31.611Z,84643.22
2024-01-15T13:19:58.559Z,84654.16
2024-01-15T13:22:30.897Z,84654.84
2024-01-15T13:24:57.789Z,84647.31
2024-01-15T13:27:24.736Z,84642.53
2024-01-15T13:29:51.458Z,84648.69
2024-01-15T13:32:27.792Z,84660.31
2024-01-15T13:34:55.288Z,84670.59
2024-01-15T13:37:21.962Z,84660.34
2024-01-15T13:39:48.940Z,84658.94
2024-01-15T13:42:16.852Z,84665.81
2024-01-15T13:44:43.527Z,84662.38
2024-01-15T13:47:10.334Z,84661.00
2024-01-15T13:49:38.315Z,84665.81
2024-01-15T13:52:05.269Z,84672.66
2024-01-15T13:54:44.635Z,84674.69
2024-01-15T13:57:16.088Z,84667.19
2024-01-15T13:59:43.096Z,84678.81
2024-01-15T14:02:11.453Z,84667.19
2024-01-15T14:04:38.660Z,84673.34
2024-01-15T14:07:05.911Z,84673.31
2024-01-15T14:09:33.510Z,84671.97
2024-01-15T14:12:00.390Z,84666.47
2024-01-15T14:14:27.299Z,84652.81
2024-01-15T14:16:54.035Z,84666.50
2024-01-15T14:19:22.515Z,84659.63
2024-01-15T14:21:49.822Z,84662.38
2024-01-15T14:24:17.580Z,84658.97
2024-01-15T14:26:44.216Z,84654.16
2024-01-15T14:29:11.061Z,84666.50
2024-01-15T14:31:37.944Z,84654.16
2024-01-15T14:34:04.902Z,84654.16
2024-01-15T14:36:31.730Z,84671.97
2024-01-15T14:38:58.634Z,84663.78
2024-01-15T14:41:25.486Z,84658.97
2024-01-15T14:43:52.207Z,84666.50
2024-01-15T14:46:18.927Z,84653.50
2024-01-15T14:48:46.522Z,84668.53
2024-01-15T14:51:13.640Z,84670.59
2024-01-15T14:53:40.444Z,84656.91
2024-01-15T14:56:07.349Z,84661.03
2024-01-15T14:58:34.050Z,84643.22
2024-01-15T15:01:01.013Z,84645.28
2024-01-15T15:03:27.970Z,84645.31
2024-01-15T15:05:54.853Z,84660.34
2024-01-15T15:08:21.552Z,84655.56
2024-01-15T15:10:48.259Z,84643.22
2024-01-15T15:13:15.324Z,84642.56
2024-01-15T15:15:42.701Z,84651.44
2024-01-15T15:18:09.502Z,84659.63
2024-01-15T15:20:36.336Z,84654.88
2024-01-15T15:23:04.275Z,84663.06
2024-01-15T15:25:31.006Z,84665.81
2024-01-15T15:27:57.776Z,84667.88
2024-01-15T15:30:24.502Z,84670.59
2024-01-15T15:32:51.259Z,84673.31
2024-01-15T15:35:18.250Z,84671.97
2024-01-15T15:37:45.101Z,84665.13
2024-01-15T15:40:12.638Z,84662.38
2024-01-15T15:42:39.480Z,84656.25
2024-01-15T15:45:06.562Z,84658.28
2024-01-15T15:47:33.799Z,84665.13
2024-01-15T15:50:00.836Z,84665.13
2024-01-15T15:52:27.885Z,84652.13
2024-01-15T15:54:54.596Z,84656.94
2024-01-15T15:57:21.461Z,84647.34
2024-01-15T15:59:48.224Z,84656.25
2024-01-15T16:02:14.941Z,84656.91
2024-01-15T16:04:41.958Z,84662.41
2024-01-15T16:07:11.328Z,84665.13
2024-01-15T16:09:38.226Z,84657.59
2024-01-15T16:12:05.117Z,84669.91
2024-01-15T16:14:31.725Z,84654.88
2024-01-15T16:23:13.767Z,84677.44
2024-01-15T16:23:26.976Z,84663.06
2024-01-15T16:23:42.379Z,84661.03
2024-01-15T16:25:19.866Z,84656.25
2024-01-15T16:27:46.975Z,84655.56
2024-01-15T16:30:24.743Z,84654.84
2024-01-15T16:32:56.750Z,84641.19
2024-01-15T16:35:23.688Z,84639.13
2024-01-15T16:37:51.089Z,84650.09
2024-01-15T16:40:17.876Z,84647.34
2024-01-15T16:42:46.341Z,84638.44
2024-01-15T16:45:13.180Z,84641.19
2024-01-15T16:47:40.338Z,84637.09
2024-01-15T16:50:07.374Z,84642.56
2024-01-15T16:52:34.245Z,84644.59
2024-01-15T16:55:01.085Z,84639.13
2024-01-15T16:57:27.657Z,84644.59
2024-01-15T16:59:54.359Z,84637.75
2024-01-15T17:02:21.157Z,84633.66
2024-01-15T17:04:47.792Z,84626.81
2024-01-15T17:07:15.146Z,84633.66
2024-01-15T17:09:41.796Z,84624.75
2024-01-15T17:12:08.535Z,84604.91
2024-01-15T17:14:35.346Z,84604.94
2024-01-15T17:17:02.483Z,84599.44
2024-01-15T17:19:29.232Z,84599.44
2024-01-15T17:21:55.833Z,84604.25
2024-01-15T17:24:22.487Z,84597.41
2024-01-15T17:26:50.330Z,84595.38
2024-01-15T17:29:17.542Z,84587.81
2024-01-15T17:31:44.291Z,84589.88
2024-01-15T17:34:11.762Z,84576.19
2024-01-15T17:36:38.627Z,84565.94
2024-01-15T17:39:07.435Z,84574.81
2024-01-15T17:41:34.648Z,84565.94
2024-01-15T17:44:02.517Z,84570.72
2024-01-15T17:46:30.282Z,84577.56
2024-01-15T17:49:03.833Z,84573.47
2024-01-15T17:51:31.321Z,84583.03
2024-01-15T17:53:58.347Z,84574.16
2024-01-15T17:56:25.282Z,84573.44
2024-01-15T17:58:52.046Z,84572.06
2024-01-15T18:01:20.431Z,84577.56
2024-01-15T18:03:47.322Z,84576.88
2024-01-15T18:06:14.149Z,84578.94
2024-01-15T18:08:41.583Z,84571.41
2024-01-15T18:11:08.372Z,84570.75
2024-01-15T18:13:35.253Z,84557.06
2024-01-15T18:16:01.867Z,84565.25
2024-01-15T18:18:28.698Z,84561.16
2024-01-15T18:20:55.325Z,84566.63
2024-01-15T18:23:21.966Z,84561.16
2024-01-15T18:25:48.531Z,84554.34
2024-01-15T18:28:15.985Z,84566.63
2024-01-15T18:30:42.695Z,84559.78
2024-01-15T18:33:09.516Z,84557.75
2024-01-15T18:35:36.177Z,84554.31
2024-01-15T18:38:02.906Z,84549.53
2024-01-15T18:40:36.062Z,84555.69
2024-01-15T18:43:03.146Z,84554.31
2024-01-15T18:45:29.783Z,84552.25
2024-01-15T18:47:57.135Z,84550.22
2024-01-15T18:50:23.926Z,84550.22
2024-01-15T18:52:50.650Z,84546.78
2024-01-15T18:55:19.444Z,84546.13
2024-01-15T18:57:46.117Z,84533.78
2024-01-15T19:00:13.109Z,84541.31
2024-01-15T19:02:39.815Z,84542.69
2024-01-15T19:05:06.711Z,84532.44
2024-01-15T19:07:34.388Z,84527.66
2024-01-15T19:10:01.010Z,84533.13
2024-01-15T19:12:27.650Z,84535.16
2024-01-15T19:14:54.410Z,84531.09
2024-01-15T19:17:21.086Z,84532.44
2024-01-15T19:19:52.373Z,84536.53
2024-01-15T19:22:22.315Z,84535.19
2024-01-15T19:24:48.928Z,84544.75
2024-01-15T19:27:15.609Z,84540.66
2024-01-15T19:29:42.310Z,84535.19
2024-01-15T19:32:09.028Z,84531.75
2024-01-15T19:34:38.992Z,84531.09
2024-01-15T19:37:05.934Z,84533.69
2024-01-15T19:39:33.468Z,84523.84
2024-01-15T19:42:01.157Z,84526.81
2024-01-15T19:44:28.069Z,84515.91
2024-01-15T19:46:54.762Z,84528.22
2024-01-15T19:49:21.491Z,84517.28
2024-01-15T19:51:48.216Z,84525.47
2024-01-15T19:54:14.825Z,84528.22
2024-01-15T19:56:41.533Z,84526.88
2024-01-15T19:59:08.306Z,84514.06
2024-01-15T20:01:34.966Z,84509.53
2024-01-15T20:04:01.610Z,84516.75
2024-01-15T20:06:28.954Z,84515.34
2024-01-15T20:08:55.846Z,84514.78
2024-01-15T20:11:22.708Z,84513.63
2024-01-15T20:13:49.743Z,84505.22
2024-01-15T20:16:16.984Z,84511.97
2024-01-15T20:18:43.815Z,84518.19
2024-01-15T20:21:11.208Z,84516.78
2024-01-15T20:23:46.472Z,84520.00
2024-01-15T20:26:21.547Z,84514.06
2024-01-15T20:28:48.615Z,84514.31
2024-01-15T20:31:15.401Z,84512.19
2024-01-15T20:33:42.362Z,84507.81
2024-01-15T20:36:13.491Z,84504.22
2024-01-15T20:38:40.718Z,84500.56
2024-01-15T20:41:07.609Z,84496.59
2024-01-15T20:43:35.204Z,84490.22
2024-01-15T20:46:02.577Z,84498.44
2024-01-15T20:48:29.707Z,84488.97
2024-01-15T20:50:56.444Z,84490.72
2024-01-15T20:53:23.390Z,84488.59
2024-01-15T20:55:50.193Z,84484.13
2024-01-15T20:58:23.989Z,84494.38
2024-01-15T21:00:50.818Z,84479.66
2024-01-15T21:03:17.900Z,84482.69
2024-01-15T21:05:44.921Z,84473.31
2024-01-15T21:08:11.644Z,84467.44
2024-01-15T21:10:38.543Z,84462.50
2024-01-15T21:13:05.533Z,84469.94
2024-01-15T21:15:32.222Z,84463.53
2024-01-15T21:17:59.096Z,84468.22
2024-01-15T21:20:25.884Z,84466.66
2024-01-15T21:22:52.616Z,84467.00
2024-01-15T21:25:19.456Z,84475.63
2024-01-15T21:27:47.458Z,84469.72
2024-01-15T21:30:16.057Z,84462.41
2024-01-15T21:32:43.003Z,84457.56
2024-01-15T21:35:10.805Z,84468.97
2024-01-15T21:37:37.548Z,84451.88
2024-01-15T21:40:08.346Z,84452.13
2024-01-15T21:42:38.069Z,84465.25
2024-01-15T21:45:06.582Z,84458.63
2024-01-15T21:47:33.385Z,84446.09
2024-01-15T21:50:00.293Z,84440.06
2024-01-15T21:52:27.451Z,84433.63
2024-01-15T21:54:54.117Z,84435.50
2024-01-15T21:57:20.666Z,84432.00
2024-01-15T21:59:47.344Z,84431.09
2024-01-15T22:02:14.364Z,84430.19
2024-01-15T22:04:41.077Z,84430.84
2024-01-15T22:07:07.822Z,84420.81
2024-01-15T22:09:35.188Z,84415.84
2024-01-15T22:12:04.501Z,84432.41
2024-01-15T22:14:31.225Z,84432.16
2024-01-15T22:16:57.870Z,84434.00
2024-01-15T22:19:24.591Z,84435.47
2024-01-15T22:21:52.945Z,84437.22
2024-01-15T22:24:19.650Z,84426.78
2024-01-15T22:26:46.533Z,84441.81
2024-01-15T22:29:13.280Z,84429.69
2024-01-15T22:31:40.074Z,84428.19
2024-01-15T22:34:06.825Z,84425.50
2024-01-15T22:36:33.650Z,84413.59
2024-01-15T22:39:01.307Z,84410.53
2024-01-15T22:41:28.074Z,84421.50
2024-01-15T22:43:54.764Z,84396.63
2024-01-15T22:46:21.578Z,84390.22
2024-01-15T22:48:48.299Z,84396.41
2024-01-15T22:51:15.095Z,84399.41
2024-01-15T22:53:41.860Z,84395.13
2024-01-15T22:56:08.671Z,84408.88
2024-01-15T22:58:35.379Z,84406.63
2024-01-15T23:01:02.108Z,84407.78
2024-01-15T23:03:29.033Z,84405.63
2024-01-15T23:05:55.782Z,84398.63
2024-01-15T23:08:23.063Z,84384.63
2024-01-15T23:10:49.859Z,84395.69
2024-01-15T23:13:16.625Z,84396.41
2024-01-15T23:15:43.301Z,84405.31
2024-01-15T23:18:12.721Z,84399.91
2024-01-15T23:20:39.654Z,84395.53
2024-01-15T23:23:06.401Z,84398.00
2024-01-15T23:25:33.084Z,84406.91
2024-01-15T23:27:59.778Z,84409.50
2024-01-15T23:30:26.481Z,84408.59
2024-01-15T23:32:53.359Z,84408.00
2024-01-15T23:35:20.778Z,84405.31
2024-01-15T23:37:47.515Z,84388.03
2024-01-15T23:40:15.209Z,84392.09
2024-01-15T23:42:42.084Z,84396.06
2024-01-15T23:45:08.834Z,84401.94
2024-01-15T23:47:35.675Z,84402.59
2024-01-15T23:50:04.588Z,84401.19
2024-01-15T23:52:31.389Z,84397.16
2024-01-15T23:54:58.099Z,84394.19
2024-01-15T23:57:24.796Z,84391.63
2024-01-15T23:59:51.573Z,84376.72
